sensor_id;sensor_type;location;lat;lon;timestamp;temperature;humidity
1948;DHT22;974;52.400;9.818;2023-04-25T00:01:04;8.00;99.90
1948;DHT22;974;52.400;9.818;2023-04-25T00:03:34;8.00;99.90
1948;DHT22;974;52.400;9.818;2023-04-25T00:06:00;8.00;99.90
1948;DHT22;974;52.400;9.818;2023-04-25T00:08:29;8.00;99.90
1948;DHT22;974;52.400;9.818;2023-04-25T00:10:54;8.00;99.90
1948;DHT22;974;52.400;9.818;2023-04-25T00:13:20;8.00;99.90
1948;DHT22;974;52.400;9.818;2023-04-25T00:15:46;7.90;99.90
1948;DHT22;974;52.400;9.818;2023-04-25T00:18:13;8.00;99.90
1948;DHT22;974;52.400;9.818;2023-04-25T00:20:39;8.00;99.90
1948;DHT22;974;52.400;9.818;2023-04-25T00:23:05;8.00;99.90
1948;DHT22;974;52.400;9.818;2023-04-25T00:25:31;8.00;99.90
1948;DHT22;974;52.400;9.818;2023-04-25T00:27:56;7.90;99.90
1948;DHT22;974;52.400;9.818;2023-04-25T00:30:22;7.90;99.90
1948;DHT22;974;52.400;9.818;2023-04-25T00:32:47;8.00;99.90
1948;DHT22;974;52.400;9.818;2023-04-25T00:35:14;7.90;99.90
1948;DHT22;974;52.400;9.818;2023-04-25T00:37:39;7.90;99.90
1948;DHT22;974;52.400;9.818;2023-04-25T00:40:06;7.90;99.90
1948;DHT22;974;52.400;9.818;2023-04-25T00:42:31;8.00;99.90
1948;DHT22;974;52.400;9.818;2023-04-25T00:44:58;8.00;99.90
1948;DHT22;974;52.400;9.818;2023-04-25T00:47:25;7.80;99.90
1948;DHT22;974;52.400;9.818;2023-04-25T00:49:50;7.90;99.90
1948;DHT22;974;52.400;9.818;2023-04-25T00:52:16;7.90;99.90
1948;DHT22;974;52.400;9.818;2023-04-25T00:54:42;8.00;99.90
1948;DHT22;974;52.400;9.818;2023-04-25T00:57:07;7.90;99.90
1948;DHT22;974;52.400;9.818;2023-04-25T00:59:33;7.80;99.90
1948;DHT22;974;52.400;9.818;2023-04-25T01:01:59;7.90;99.90
1948;DHT22;974;52.400;9.818;2023-04-25T01:04:27;7.80;99.90
1948;DHT22;974;52.400;9.818;2023-04-25T02:04:08;7.80;99.90
1948;DHT22;974;52.400;9.818;2023-04-25T02:06:33;7.80;99.90
1948;DHT22;974;52.400;9.818;2023-04-25T02:08:59;7.80;99.90
1948;DHT22;974;52.400;9.818;2023-04-25T02:11:24;7.80;99.90
1948;DHT22;974;52.400;9.818;2023-04-25T02:13:50;7.70;99.90
1948;DHT22;974;52.400;9.818;2023-04-25T02:16:15;7.70;99.90
1948;DHT22;974;52.400;9.818;2023-04-25T02:18:41;7.60;99.90
1948;DHT22;974;52.400;9.818;2023-04-25T02:21:06;7.50;99.90
1948;DHT22;974;52.400;9.818;2023-04-25T02:23:32;7.60;99.90
1948;DHT22;974;52.400;9.818;2023-04-25T02:25:57;7.60;99.90
1948;DHT22;974;52.400;9.818;2023-04-25T02:28:24;7.50;99.90
1948;DHT22;974;52.400;9.818;2023-04-25T02:30:50;7.40;99.90
1948;DHT22;974;52.400;9.818;2023-04-25T02:33:15;7.20;99.90
1948;DHT22;974;52.400;9.818;2023-04-25T02:35:42;7.30;99.90
1948;DHT22;974;52.400;9.818;2023-04-25T02:38:07;7.20;99.90
1948;DHT22;974;52.400;9.818;2023-04-25T02:40:33;7.20;99.90
1948;DHT22;974;52.400;9.818;2023-04-25T02:42:58;7.30;99.90
1948;DHT22;974;52.400;9.818;2023-04-25T02:45:24;7.20;99.90
1948;DHT22;974;52.400;9.818;2023-04-25T02:47:49;7.20;99.90
1948;DHT22;974;52.400;9.818;2023-04-25T02:50:15;7.10;99.90
1948;DHT22;974;52.400;9.818;2023-04-25T02:52:40;7.10;99.90
1948;DHT22;974;52.400;9.818;2023-04-25T02:55:06;7.20;99.90
1948;DHT22;974;52.400;9.818;2023-04-25T02:57:31;7.10;99.90
1948;DHT22;974;52.400;9.818;2023-04-25T02:59:57;7.10;99.90
1948;DHT22;974;52.400;9.818;2023-04-25T03:02:22;7.20;99.90
1948;DHT22;974;52.400;9.818;2023-04-25T03:04:48;7.30;99.90
1948;DHT22;974;52.400;9.818;2023-04-25T03:07:13;7.20;99.90
1948;DHT22;974;52.400;9.818;2023-04-25T03:09:39;7.30;99.90
1948;DHT22;974;52.400;9.818;2023-04-25T03:12:04;7.20;99.90
1948;DHT22;974;52.400;9.818;2023-04-25T03:14:30;7.20;99.90
1948;DHT22;974;52.400;9.818;2023-04-25T03:16:55;7.20;99.90
1948;DHT22;974;52.400;9.818;2023-04-25T03:19:21;7.20;99.90
1948;DHT22;974;52.400;9.818;2023-04-25T03:21:46;7.10;99.90
1948;DHT22;974;52.400;9.818;2023-04-25T03:24:12;7.10;99.90
1948;DHT22;974;52.400;9.818;2023-04-25T03:26:37;7.20;99.90
1948;DHT22;974;52.400;9.818;2023-04-25T03:29:03;7.10;99.90
1948;DHT22;974;52.400;9.818;2023-04-25T03:31:28;7.20;99.90
1948;DHT22;974;52.400;9.818;2023-04-25T03:33:54;7.20;99.90
1948;DHT22;974;52.400;9.818;2023-04-25T03:36:19;7.30;99.90
1948;DHT22;974;52.400;9.818;2023-04-25T03:38:45;7.30;99.90
1948;DHT22;974;52.400;9.818;2023-04-25T03:41:11;7.20;99.90
1948;DHT22;974;52.400;9.818;2023-04-25T03:43:36;7.30;99.90
1948;DHT22;974;52.400;9.818;2023-04-25T03:46:02;7.40;99.90
1948;DHT22;974;52.400;9.818;2023-04-25T03:48:27;7.30;99.90
1948;DHT22;974;52.400;9.818;2023-04-25T03:50:53;7.30;99.90
1948;DHT22;974;52.400;9.818;2023-04-25T03:53:19;7.30;99.90
1948;DHT22;974;52.400;9.818;2023-04-25T03:55:45;7.20;99.90
1948;DHT22;974;52.400;9.818;2023-04-25T03:58:10;7.20;99.90
1948;DHT22;974;52.400;9.818;2023-04-25T04:00:36;7.20;99.90
1948;DHT22;974;52.400;9.818;2023-04-25T04:03:02;7.10;99.90
1948;DHT22;974;52.400;9.818;2023-04-25T04:05:27;7.20;99.90
1948;DHT22;974;52.400;9.818;2023-04-25T04:07:53;7.00;99.90
1948;DHT22;974;52.400;9.818;2023-04-25T04:10:19;7.10;99.90
1948;DHT22;974;52.400;9.818;2023-04-25T04:12:45;7.00;99.90
1948;DHT22;974;52.400;9.818;2023-04-25T04:15:10;7.00;99.90
1948;DHT22;974;52.400;9.818;2023-04-25T04:17:37;7.10;99.90
1948;DHT22;974;52.400;9.818;2023-04-25T04:20:03;7.10;99.90
1948;DHT22;974;52.400;9.818;2023-04-25T04:22:29;6.90;99.90
1948;DHT22;974;52.400;9.818;2023-04-25T04:24:54;7.00;99.90
1948;DHT22;974;52.400;9.818;2023-04-25T04:27:20;7.00;99.90
1948;DHT22;974;52.400;9.818;2023-04-25T04:29:46;7.10;99.90
1948;DHT22;974;52.400;9.818;2023-04-25T04:32:13;7.00;99.90
1948;DHT22;974;52.400;9.818;2023-04-25T04:34:38;7.00;99.90
1948;DHT22;974;52.400;9.818;2023-04-25T04:37:04;7.00;99.90
1948;DHT22;974;52.400;9.818;2023-04-25T04:39:30;6.90;99.90
1948;DHT22;974;52.400;9.818;2023-04-25T04:41:55;6.90;99.90
1948;DHT22;974;52.400;9.818;2023-04-25T04:44:21;6.90;99.90
1948;DHT22;974;52.400;9.818;2023-04-25T04:46:46;7.00;99.90
1948;DHT22;974;52.400;9.818;2023-04-25T04:49:12;6.90;99.90
1948;DHT22;974;52.400;9.818;2023-04-25T04:51:39;7.00;99.90
1948;DHT22;974;52.400;9.818;2023-04-25T04:54:05;6.90;99.90
1948;DHT22;974;52.400;9.818;2023-04-25T04:56:31;7.00;99.90
1948;DHT22;974;52.400;9.818;2023-04-25T04:58:58;7.00;99.90
1948;DHT22;974;52.400;9.818;2023-04-25T05:01:24;7.10;99.90
1948;DHT22;974;52.400;9.818;2023-04-25T05:03:50;7.10;99.90
1948;DHT22;974;52.400;9.818;2023-04-25T05:06:17;7.10;99.90
1948;DHT22;974;52.400;9.818;2023-04-25T05:08:43;7.00;99.90
1948;DHT22;974;52.400;9.818;2023-04-25T05:11:09;7.10;99.90
1948;DHT22;974;52.400;9.818;2023-04-25T05:13:34;7.00;99.90
1948;DHT22;974;52.400;9.818;2023-04-25T05:15:59;7.10;99.90
1948;DHT22;974;52.400;9.818;2023-04-25T05:18:25;7.00;99.90
1948;DHT22;974;52.400;9.818;2023-04-25T05:20:51;6.90;99.90
1948;DHT22;974;52.400;9.818;2023-04-25T05:23:16;6.90;99.90
1948;DHT22;974;52.400;9.818;2023-04-25T05:25:41;7.00;99.90
1948;DHT22;974;52.400;9.818;2023-04-25T05:28:07;7.00;99.90
1948;DHT22;974;52.400;9.818;2023-04-25T05:30:34;6.90;99.90
1948;DHT22;974;52.400;9.818;2023-04-25T05:32:59;7.00;99.90
1948;DHT22;974;52.400;9.818;2023-04-25T05:35:25;6.90;99.90
1948;DHT22;974;52.400;9.818;2023-04-25T05:37:51;6.90;99.90
1948;DHT22;974;52.400;9.818;2023-04-25T05:40:16;6.90;99.90
1948;DHT22;974;52.400;9.818;2023-04-25T05:42:42;6.90;99.90
1948;DHT22;974;52.400;9.818;2023-04-25T05:45:07;7.00;99.90
1948;DHT22;974;52.400;9.818;2023-04-25T05:47:33;7.00;99.90
1948;DHT22;974;52.400;9.818;2023-04-25T05:49:58;7.10;99.90
1948;DHT22;974;52.400;9.818;2023-04-25T05:52:24;7.20;99.90
1948;DHT22;974;52.400;9.818;2023-04-25T05:54:50;7.20;99.90
1948;DHT22;974;52.400;9.818;2023-04-25T05:57:26;7.20;99.90
1948;DHT22;974;52.400;9.818;2023-04-25T05:59:52;7.10;99.90
1948;DHT22;974;52.400;9.818;2023-04-25T06:02:21;7.30;99.90
1948;DHT22;974;52.400;9.818;2023-04-25T06:04:49;7.30;99.90
1948;DHT22;974;52.400;9.818;2023-04-25T06:07:14;7.20;99.90
1948;DHT22;974;52.400;9.818;2023-04-25T06:09:40;7.30;99.90
1948;DHT22;974;52.400;9.818;2023-04-25T06:12:06;7.30;99.90
1948;DHT22;974;52.400;9.818;2023-04-25T06:14:32;7.30;99.90
1948;DHT22;974;52.400;9.818;2023-04-25T06:16:58;7.30;99.90
1948;DHT22;974;52.400;9.818;2023-04-25T06:19:23;7.20;99.90
1948;DHT22;974;52.400;9.818;2023-04-25T06:21:49;7.40;99.90
1948;DHT22;974;52.400;9.818;2023-04-25T06:24:14;7.40;99.90
1948;DHT22;974;52.400;9.818;2023-04-25T06:26:40;7.50;99.90
1948;DHT22;974;52.400;9.818;2023-04-25T06:29:05;7.50;99.90
1948;DHT22;974;52.400;9.818;2023-04-25T06:31:30;7.30;99.90
1948;DHT22;974;52.400;9.818;2023-04-25T06:33:58;7.30;99.90
1948;DHT22;974;52.400;9.818;2023-04-25T06:36:23;7.50;99.90
1948;DHT22;974;52.400;9.818;2023-04-25T06:38:53;7.50;99.90
1948;DHT22;974;52.400;9.818;2023-04-25T06:41:20;7.60;99.90
1948;DHT22;974;52.400;9.818;2023-04-25T06:43:45;7.40;99.90
1948;DHT22;974;52.400;9.818;2023-04-25T06:46:11;7.50;99.90
1948;DHT22;974;52.400;9.818;2023-04-25T06:48:36;7.50;99.90
1948;DHT22;974;52.400;9.818;2023-04-25T06:51:02;7.50;99.90
1948;DHT22;974;52.400;9.818;2023-04-25T06:53:28;7.60;99.90
1948;DHT22;974;52.400;9.818;2023-04-25T06:55:53;7.50;99.90
1948;DHT22;974;52.400;9.818;2023-04-25T06:58:19;7.60;99.90
1948;DHT22;974;52.400;9.818;2023-04-25T07:00:44;7.70;99.90
1948;DHT22;974;52.400;9.818;2023-04-25T07:03:10;7.40;99.90
1948;DHT22;974;52.400;9.818;2023-04-25T07:05:35;7.60;99.90
1948;DHT22;974;52.400;9.818;2023-04-25T07:08:01;7.70;99.90
1948;DHT22;974;52.400;9.818;2023-04-25T07:10:27;7.70;99.90
1948;DHT22;974;52.400;9.818;2023-04-25T07:12:52;7.80;99.90
1948;DHT22;974;52.400;9.818;2023-04-25T07:15:17;8.00;99.90
1948;DHT22;974;52.400;9.818;2023-04-25T07:17:43;8.10;99.90
1948;DHT22;974;52.400;9.818;2023-04-25T07:20:09;7.90;99.90
1948;DHT22;974;52.400;9.818;2023-04-25T07:22:35;7.90;99.90
1948;DHT22;974;52.400;9.818;2023-04-25T07:25:01;7.90;99.90
1948;DHT22;974;52.400;9.818;2023-04-25T07:27:26;8.10;99.90
1948;DHT22;974;52.400;9.818;2023-04-25T07:29:52;8.00;99.90
1948;DHT22;974;52.400;9.818;2023-04-25T07:32:18;7.80;99.90
1948;DHT22;974;52.400;9.818;2023-04-25T07:34:43;7.90;99.90
1948;DHT22;974;52.400;9.818;2023-04-25T07:37:09;7.90;99.90
1948;DHT22;974;52.400;9.818;2023-04-25T07:39:34;8.00;99.90
1948;DHT22;974;52.400;9.818;2023-04-25T07:42:00;7.90;99.90
1948;DHT22;974;52.400;9.818;2023-04-25T07:44:27;8.00;99.90
1948;DHT22;974;52.400;9.818;2023-04-25T07:46:52;8.00;99.90
1948;DHT22;974;52.400;9.818;2023-04-25T07:49:18;8.00;99.90
1948;DHT22;974;52.400;9.818;2023-04-25T07:51:43;7.90;99.90
1948;DHT22;974;52.400;9.818;2023-04-25T07:54:12;7.90;99.90
1948;DHT22;974;52.400;9.818;2023-04-25T07:56:38;7.90;99.90
1948;DHT22;974;52.400;9.818;2023-04-25T07:59:03;7.90;99.90
1948;DHT22;974;52.400;9.818;2023-04-25T08:01:29;8.00;99.90
1948;DHT22;974;52.400;9.818;2023-04-25T08:03:54;7.90;99.90
1948;DHT22;974;52.400;9.818;2023-04-25T08:06:20;8.10;99.90
1948;DHT22;974;52.400;9.818;2023-04-25T08:08:45;8.40;99.90
1948;DHT22;974;52.400;9.818;2023-04-25T08:11:11;8.60;99.90
1948;DHT22;974;52.400;9.818;2023-04-25T08:13:36;8.30;99.90
1948;DHT22;974;52.400;9.818;2023-04-25T08:16:02;8.40;99.90
1948;DHT22;974;52.400;9.818;2023-04-25T08:18:27;8.40;99.90
1948;DHT22;974;52.400;9.818;2023-04-25T08:20:53;8.50;99.90
1948;DHT22;974;52.400;9.818;2023-04-25T08:23:18;8.50;99.90
1948;DHT22;974;52.400;9.818;2023-04-25T08:25:44;8.40;99.90
1948;DHT22;974;52.400;9.818;2023-04-25T08:28:09;8.20;99.90
1948;DHT22;974;52.400;9.818;2023-04-25T08:30:36;8.30;99.90
1948;DHT22;974;52.400;9.818;2023-04-25T08:33:02;8.20;99.90
1948;DHT22;974;52.400;9.818;2023-04-25T08:35:28;8.30;99.90
1948;DHT22;974;52.400;9.818;2023-04-25T08:37:53;8.40;99.90
1948;DHT22;974;52.400;9.818;2023-04-25T08:40:19;8.50;99.90
1948;DHT22;974;52.400;9.818;2023-04-25T08:42:52;8.50;99.90
1948;DHT22;974;52.400;9.818;2023-04-25T08:45:18;8.50;99.90
1948;DHT22;974;52.400;9.818;2023-04-25T08:47:45;8.50;99.90
1948;DHT22;974;52.400;9.818;2023-04-25T08:50:11;8.60;99.90
1948;DHT22;974;52.400;9.818;2023-04-25T08:52:44;8.40;99.90
1948;DHT22;974;52.400;9.818;2023-04-25T08:55:12;8.30;99.90
1948;DHT22;974;52.400;9.818;2023-04-25T08:57:39;8.40;99.90
1948;DHT22;974;52.400;9.818;2023-04-25T09:00:07;8.50;99.90
1948;DHT22;974;52.400;9.818;2023-04-25T09:02:33;8.30;99.90
1948;DHT22;974;52.400;9.818;2023-04-25T09:04:59;8.40;99.90
1948;DHT22;974;52.400;9.818;2023-04-25T09:07:24;8.50;99.90
1948;DHT22;974;52.400;9.818;2023-04-25T09:09:51;8.50;99.90
1948;DHT22;974;52.400;9.818;2023-04-25T09:12:18;8.50;99.90
1948;DHT22;974;52.400;9.818;2023-04-25T09:15:07;8.70;99.90
1948;DHT22;974;52.400;9.818;2023-04-25T09:17:33;8.80;99.90
1948;DHT22;974;52.400;9.818;2023-04-25T09:20:13;8.60;99.90
1948;DHT22;974;52.400;9.818;2023-04-25T09:22:39;8.70;99.90
1948;DHT22;974;52.400;9.818;2023-04-25T09:25:09;8.50;99.90
1948;DHT22;974;52.400;9.818;2023-04-25T09:27:35;8.50;99.90
1948;DHT22;974;52.400;9.818;2023-04-25T09:30:01;8.60;99.90
1948;DHT22;974;52.400;9.818;2023-04-25T09:32:27;8.70;99.90
1948;DHT22;974;52.400;9.818;2023-04-25T09:34:54;8.80;99.90
1948;DHT22;974;52.400;9.818;2023-04-25T09:37:21;8.90;99.90
1948;DHT22;974;52.400;9.818;2023-04-25T09:39:49;8.80;99.90
1948;DHT22;974;52.400;9.818;2023-04-25T09:42:15;8.90;99.90
1948;DHT22;974;52.400;9.818;2023-04-25T09:44:43;9.00;99.90
1948;DHT22;974;52.400;9.818;2023-04-25T09:47:13;9.30;99.90
1948;DHT22;974;52.400;9.818;2023-04-25T09:49:41;9.10;98.90
1948;DHT22;974;52.400;9.818;2023-04-25T09:52:15;9.40;99.90
1948;DHT22;974;52.400;9.818;2023-04-25T09:54:41;9.10;98.40
1948;DHT22;974;52.400;9.818;2023-04-25T09:57:12;9.10;97.60
1948;DHT22;974;52.400;9.818;2023-04-25T09:59:42;9.10;98.20
1948;DHT22;974;52.400;9.818;2023-04-25T10:02:09;9.40;98.80
1948;DHT22;974;52.400;9.818;2023-04-25T10:04:35;9.50;97.90
1948;DHT22;974;52.400;9.818;2023-04-25T10:07:05;9.50;97.60
1948;DHT22;974;52.400;9.818;2023-04-25T10:09:32;9.60;97.60
1948;DHT22;974;52.400;9.818;2023-04-25T10:12:00;9.70;97.70
1948;DHT22;974;52.400;9.818;2023-04-25T10:14:30;9.90;97.90
1948;DHT22;974;52.400;9.818;2023-04-25T10:16:57;9.70;97.10
1948;DHT22;974;52.400;9.818;2023-04-25T10:19:23;9.90;97.80
1948;DHT22;974;52.400;9.818;2023-04-25T10:21:54;9.90;97.80
1948;DHT22;974;52.400;9.818;2023-04-25T10:24:21;9.80;97.10
1948;DHT22;974;52.400;9.818;2023-04-25T10:26:48;9.60;96.80
1948;DHT22;974;52.400;9.818;2023-04-25T10:29:21;9.70;97.80
1948;DHT22;974;52.400;9.818;2023-04-25T10:31:48;9.50;97.80
1948;DHT22;974;52.400;9.818;2023-04-25T10:34:13;9.40;97.50
1948;DHT22;974;52.400;9.818;2023-04-25T10:36:39;9.30;97.20
1948;DHT22;974;52.400;9.818;2023-04-25T10:39:06;9.10;97.50
1948;DHT22;974;52.400;9.818;2023-04-25T10:41:52;9.10;98.20
1948;DHT22;974;52.400;9.818;2023-04-25T10:44:18;9.00;98.20
1948;DHT22;974;52.400;9.818;2023-04-25T10:46:44;9.10;98.40
1948;DHT22;974;52.400;9.818;2023-04-25T10:49:10;9.00;97.70
1948;DHT22;974;52.400;9.818;2023-04-25T10:52:14;9.10;98.20
1948;DHT22;974;52.400;9.818;2023-04-25T10:54:47;9.30;98.80
1948;DHT22;974;52.400;9.818;2023-04-25T10:57:42;9.30;98.10
1948;DHT22;974;52.400;9.818;2023-04-25T11:00:17;9.20;98.10
1948;DHT22;974;52.400;9.818;2023-04-25T11:02:47;9.30;98.30
1948;DHT22;974;52.400;9.818;2023-04-25T11:05:33;9.30;98.40
1948;DHT22;974;52.400;9.818;2023-04-25T11:07:59;9.90;98.10
1948;DHT22;974;52.400;9.818;2023-04-25T11:10:28;10.00;97.20
1948;DHT22;974;52.400;9.818;2023-04-25T11:12:54;10.40;95.90
1948;DHT22;974;52.400;9.818;2023-04-25T11:15:20;11.20;97.70
1948;DHT22;974;52.400;9.818;2023-04-25T11:17:46;12.30;97.90
1948;DHT22;974;52.400;9.818;2023-04-25T11:20:12;13.50;94.70
1948;DHT22;974;52.400;9.818;2023-04-25T11:22:39;17.20;93.60
1948;DHT22;974;52.400;9.818;2023-04-25T11:25:09;18.60;83.90
1948;DHT22;974;52.400;9.818;2023-04-25T11:27:53;21.40;76.90
1948;DHT22;974;52.400;9.818;2023-04-25T11:30:19;23.60;62.10
1948;DHT22;974;52.400;9.818;2023-04-25T11:32:46;18.80;53.00
1948;DHT22;974;52.400;9.818;2023-04-25T11:35:12;16.10;55.40
1948;DHT22;974;52.400;9.818;2023-04-25T11:37:44;14.50;58.50
1948;DHT22;974;52.400;9.818;2023-04-25T11:40:10;12.80;62.40
1948;DHT22;974;52.400;9.818;2023-04-25T11:42:44;11.90;66.30
1948;DHT22;974;52.400;9.818;2023-04-25T11:45:09;11.10;71.70
1948;DHT22;974;52.400;9.818;2023-04-25T11:47:36;10.30;78.50
1948;DHT22;974;52.400;9.818;2023-04-25T11:50:03;9.70;85.50
1948;DHT22;974;52.400;9.818;2023-04-25T11:52:43;9.70;88.00
1948;DHT22;974;52.400;9.818;2023-04-25T11:57:38;8.90;92.60
1948;DHT22;974;52.400;9.818;2023-04-25T12:00:15;8.80;93.80
1948;DHT22;974;52.400;9.818;2023-04-25T12:02:51;9.00;95.10
1948;DHT22;974;52.400;9.818;2023-04-25T12:05:17;9.20;96.60
1948;DHT22;974;52.400;9.818;2023-04-25T12:07:43;9.20;96.90
1948;DHT22;974;52.400;9.818;2023-04-25T12:10:10;10.00;96.60
1948;DHT22;974;52.400;9.818;2023-04-25T12:12:37;10.50;97.20
1948;DHT22;974;52.400;9.818;2023-04-25T12:15:14;10.90;94.10
1948;DHT22;974;52.400;9.818;2023-04-25T12:17:44;14.60;96.20
1948;DHT22;974;52.400;9.818;2023-04-25T12:20:12;13.30;90.20
1948;DHT22;974;52.400;9.818;2023-04-25T12:22:41;18.40;93.60
1948;DHT22;974;52.400;9.818;2023-04-25T12:25:13;22.80;87.10
1948;DHT22;974;52.400;9.818;2023-04-25T12:27:39;24.40;65.00
1948;DHT22;974;52.400;9.818;2023-04-25T12:30:09;23.20;51.80
1948;DHT22;974;52.400;9.818;2023-04-25T12:32:36;21.00;52.10
1948;DHT22;974;52.400;9.818;2023-04-25T12:35:01;18.80;50.00
1948;DHT22;974;52.400;9.818;2023-04-25T12:37:28;18.30;51.30
1948;DHT22;974;52.400;9.818;2023-04-25T12:39:53;15.20;54.40
1948;DHT22;974;52.400;9.818;2023-04-25T12:42:19;14.10;57.40
1948;DHT22;974;52.400;9.818;2023-04-25T12:44:45;12.90;62.60
1948;DHT22;974;52.400;9.818;2023-04-25T12:47:11;11.30;69.70
1948;DHT22;974;52.400;9.818;2023-04-25T12:49:37;11.00;72.90
1948;DHT22;974;52.400;9.818;2023-04-25T12:52:03;10.50;72.20
1948;DHT22;974;52.400;9.818;2023-04-25T12:54:29;10.10;72.20
1948;DHT22;974;52.400;9.818;2023-04-25T12:56:55;9.80;72.20
1948;DHT22;974;52.400;9.818;2023-04-25T12:59:20;9.40;72.90
1948;DHT22;974;52.400;9.818;2023-04-25T13:01:46;9.40;74.30
1948;DHT22;974;52.400;9.818;2023-04-25T13:04:12;9.40;75.20
1948;DHT22;974;52.400;9.818;2023-04-25T13:06:37;9.60;75.90
1948;DHT22;974;52.400;9.818;2023-04-25T13:09:03;9.50;76.10
1948;DHT22;974;52.400;9.818;2023-04-25T13:11:28;9.50;74.70
1948;DHT22;974;52.400;9.818;2023-04-25T13:13:56;9.40;75.20
1948;DHT22;974;52.400;9.818;2023-04-25T13:16:21;9.30;74.70
1948;DHT22;974;52.400;9.818;2023-04-25T13:18:47;9.10;74.30
1948;DHT22;974;52.400;9.818;2023-04-25T13:21:13;8.90;73.20
1948;DHT22;974;52.400;9.818;2023-04-25T13:23:38;8.90;74.10
1948;DHT22;974;52.400;9.818;2023-04-25T13:26:04;9.00;75.50
1948;DHT22;974;52.400;9.818;2023-04-25T13:28:29;9.00;77.40
1948;DHT22;974;52.400;9.818;2023-04-25T13:30:55;8.90;79.90
1948;DHT22;974;52.400;9.818;2023-04-25T13:33:20;8.90;81.70
1948;DHT22;974;52.400;9.818;2023-04-25T13:35:47;8.90;83.40
1948;DHT22;974;52.400;9.818;2023-04-25T13:38:22;8.90;86.30
1948;DHT22;974;52.400;9.818;2023-04-25T13:40:48;9.00;87.00
1948;DHT22;974;52.400;9.818;2023-04-25T13:43:14;8.90;88.60
1948;DHT22;974;52.400;9.818;2023-04-25T13:45:40;9.10;89.30
1948;DHT22;974;52.400;9.818;2023-04-25T13:48:06;9.80;90.60
1948;DHT22;974;52.400;9.818;2023-04-25T13:50:31;10.80;88.20
1948;DHT22;974;52.400;9.818;2023-04-25T13:52:57;11.70;88.60
1948;DHT22;974;52.400;9.818;2023-04-25T13:55:22;11.30;85.90
1948;DHT22;974;52.400;9.818;2023-04-25T13:57:48;11.00;86.20
1948;DHT22;974;52.400;9.818;2023-04-25T14:00:14;10.80;86.10
1948;DHT22;974;52.400;9.818;2023-04-25T14:02:39;10.40;86.60
1948;DHT22;974;52.400;9.818;2023-04-25T14:05:05;9.80;92.50
1948;DHT22;974;52.400;9.818;2023-04-25T14:07:33;8.90;94.60
1948;DHT22;974;52.400;9.818;2023-04-25T14:09:58;8.40;97.20
1948;DHT22;974;52.400;9.818;2023-04-25T14:12:24;8.60;98.60
1948;DHT22;974;52.400;9.818;2023-04-25T14:14:50;8.50;98.30
1948;DHT22;974;52.400;9.818;2023-04-25T14:17:16;8.50;99.10
1948;DHT22;974;52.400;9.818;2023-04-25T14:19:41;8.80;98.80
1948;DHT22;974;52.400;9.818;2023-04-25T14:22:11;9.40;99.80
1948;DHT22;974;52.400;9.818;2023-04-25T14:24:36;9.70;98.90
1948;DHT22;974;52.400;9.818;2023-04-25T14:27:02;10.60;98.80
1948;DHT22;974;52.400;9.818;2023-04-25T14:29:28;11.70;99.10
1948;DHT22;974;52.400;9.818;2023-04-25T14:31:54;12.10;96.40
1948;DHT22;974;52.400;9.818;2023-04-25T14:34:19;11.80;96.80
1948;DHT22;974;52.400;9.818;2023-04-25T14:36:45;11.40;94.70
1948;DHT22;974;52.400;9.818;2023-04-25T14:39:10;11.50;95.40
1948;DHT22;974;52.400;9.818;2023-04-25T14:41:37;11.60;94.70
1948;DHT22;974;52.400;9.818;2023-04-25T14:44:03;11.20;93.50
1948;DHT22;974;52.400;9.818;2023-04-25T14:46:28;11.20;93.20
1948;DHT22;974;52.400;9.818;2023-04-25T14:48:54;11.20;93.00
1948;DHT22;974;52.400;9.818;2023-04-25T14:51:20;11.30;93.10
1948;DHT22;974;52.400;9.818;2023-04-25T14:53:46;11.50;93.50
1948;DHT22;974;52.400;9.818;2023-04-25T14:56:11;11.60;92.80
1948;DHT22;974;52.400;9.818;2023-04-25T14:58:38;11.10;91.70
1948;DHT22;974;52.400;9.818;2023-04-25T15:01:04;11.00;92.10
1948;DHT22;974;52.400;9.818;2023-04-25T15:03:29;11.00;92.80
1948;DHT22;974;52.400;9.818;2023-04-25T15:05:55;10.70;94.30
1948;DHT22;974;52.400;9.818;2023-04-25T15:08:21;10.50;95.20
1948;DHT22;974;52.400;9.818;2023-04-25T15:10:47;10.40;95.60
1948;DHT22;974;52.400;9.818;2023-04-25T15:13:12;10.00;96.40
1948;DHT22;974;52.400;9.818;2023-04-25T15:15:38;10.00;97.10
1948;DHT22;974;52.400;9.818;2023-04-25T15:18:03;9.90;98.50
1948;DHT22;974;52.400;9.818;2023-04-25T15:20:29;9.40;97.80
1948;DHT22;974;52.400;9.818;2023-04-25T15:22:55;9.30;97.90
1948;DHT22;974;52.400;9.818;2023-04-25T15:25:20;9.00;97.90
1948;DHT22;974;52.400;9.818;2023-04-25T15:27:46;8.90;97.70
1948;DHT22;974;52.400;9.818;2023-04-25T15:30:15;8.90;97.50
1948;DHT22;974;52.400;9.818;2023-04-25T15:32:44;8.90;98.10
1948;DHT22;974;52.400;9.818;2023-04-25T15:35:10;9.30;99.70
1948;DHT22;974;52.400;9.818;2023-04-25T15:37:37;9.90;99.30
1948;DHT22;974;52.400;9.818;2023-04-25T15:40:05;10.40;98.80
1948;DHT22;974;52.400;9.818;2023-04-25T15:42:38;10.60;97.00
1948;DHT22;974;52.400;9.818;2023-04-25T15:45:05;10.80;97.30
1948;DHT22;974;52.400;9.818;2023-04-25T15:47:31;10.90;96.50
1948;DHT22;974;52.400;9.818;2023-04-25T15:49:57;10.70;96.10
1948;DHT22;974;52.400;9.818;2023-04-25T15:52:22;10.50;96.10
1948;DHT22;974;52.400;9.818;2023-04-25T15:54:48;10.60;95.70
1948;DHT22;974;52.400;9.818;2023-04-25T15:57:13;10.20;94.90
1948;DHT22;974;52.400;9.818;2023-04-25T15:59:40;10.30;95.40
1948;DHT22;974;52.400;9.818;2023-04-25T16:02:05;10.00;94.20
1948;DHT22;974;52.400;9.818;2023-04-25T16:04:31;9.90;95.70
1948;DHT22;974;52.400;9.818;2023-04-25T16:07:00;9.70;95.50
1948;DHT22;974;52.400;9.818;2023-04-25T16:09:25;9.60;96.30
1948;DHT22;974;52.400;9.818;2023-04-25T16:11:51;9.10;97.60
1948;DHT22;974;52.400;9.818;2023-04-25T16:14:16;9.00;98.20
1948;DHT22;974;52.400;9.818;2023-04-25T16:16:42;9.00;98.70
1948;DHT22;974;52.400;9.818;2023-04-25T16:19:09;9.20;98.60
1948;DHT22;974;52.400;9.818;2023-04-25T16:21:35;9.30;98.70
1948;DHT22;974;52.400;9.818;2023-04-25T16:24:00;9.30;98.20
1948;DHT22;974;52.400;9.818;2023-04-25T16:26:26;9.50;98.50
1948;DHT22;974;52.400;9.818;2023-04-25T16:28:51;9.60;99.00
1948;DHT22;974;52.400;9.818;2023-04-25T16:31:17;9.70;98.50
1948;DHT22;974;52.400;9.818;2023-04-25T16:33:43;9.60;97.50
1948;DHT22;974;52.400;9.818;2023-04-25T16:36:08;9.80;97.70
1948;DHT22;974;52.400;9.818;2023-04-25T16:38:34;9.80;97.20
1948;DHT22;974;52.400;9.818;2023-04-25T16:40:59;9.80;97.00
1948;DHT22;974;52.400;9.818;2023-04-25T16:43:25;9.70;96.70
1948;DHT22;974;52.400;9.818;2023-04-25T16:45:51;9.80;97.30
1948;DHT22;974;52.400;9.818;2023-04-25T16:48:16;9.90;97.30
1948;DHT22;974;52.400;9.818;2023-04-25T16:50:44;9.70;96.60
1948;DHT22;974;52.400;9.818;2023-04-25T16:53:09;9.60;96.50
1948;DHT22;974;52.400;9.818;2023-04-25T16:55:35;9.40;95.50
1948;DHT22;974;52.400;9.818;2023-04-25T16:58:01;9.30;96.00
1948;DHT22;974;52.400;9.818;2023-04-25T17:00:26;9.20;96.50
1948;DHT22;974;52.400;9.818;2023-04-25T17:02:52;9.20;96.70
1948;DHT22;974;52.400;9.818;2023-04-25T17:05:17;9.10;97.60
1948;DHT22;974;52.400;9.818;2023-04-25T17:07:43;9.10;97.80
1948;DHT22;974;52.400;9.818;2023-04-25T17:10:09;9.10;98.40
1948;DHT22;974;52.400;9.818;2023-04-25T17:12:34;9.30;98.30
1948;DHT22;974;52.400;9.818;2023-04-25T17:15:00;9.20;97.60
1948;DHT22;974;52.400;9.818;2023-04-25T17:17:26;9.20;97.90
1948;DHT22;974;52.400;9.818;2023-04-25T17:19:51;9.00;97.70
1948;DHT22;974;52.400;9.818;2023-04-25T17:22:17;8.90;98.00
1948;DHT22;974;52.400;9.818;2023-04-25T17:24:42;8.80;97.80
1948;DHT22;974;52.400;9.818;2023-04-25T17:27:09;8.90;98.10